This is the latest recevied weather packets stored in our database for station/object KC1ELF. If no packets are shown the sender has not sent any weather packets the latest 10 day(s).
| Time | Temp. | Humidity | Pressure | Rain* | Wind** | Luminosity | Snow |
|---|---|---|---|---|---|---|---|
| 1777408597 | 15.56° C | 35% | 1020.9 hPa | 0 mm | - | - | - |
| 1777407996 | 15.56° C | 36% | 1020.9 hPa | 0 mm | - | - | - |
| 1777407398 | 16.11° C | 35% | 1021.1 hPa | 0 mm | - | - | - |
| 1777406796 | 16.11° C | 37% | 1021.2 hPa | 0 mm | - | - | - |
| 1777406195 | 16.11° C | 37% | 1020.9 hPa | 0 mm | - | - | - |
| 1777405597 | 16.11° C | 36% | 1020.9 hPa | 0 mm | - | - | - |
| 1777404997 | 16.67° C | 37% | 1021.1 hPa | 0 mm | - | - | - |
| 1777404396 | 16.67° C | 37% | 1021.1 hPa | 0 mm | - | - | - |
| 1777403796 | 17.22° C | 40% | 1021.2 hPa | 0 mm | - | - | - |
| 1777403196 | 17.22° C | 40% | 1021.3 hPa | 0 mm | - | - | - |
| 1777402596 | 17.22° C | 41% | 1021.5 hPa | 0 mm | - | - | - |
| 1777401997 | 17.22° C | 43% | 1021.5 hPa | 0 mm | - | - | - |
| 1777401396 | 17.22° C | 43% | 1021.7 hPa | 0 mm | - | - | - |
| 1777400796 | 17.78° C | 43% | 1021.9 hPa | 0 mm | - | - | - |
| 1777400208 | 17.78° C | 45% | 1022 hPa | 0 mm | - | - | - |
| 1777399598 | 17.78° C | 44% | 1022.2 hPa | 0 mm | - | - | - |
| 1777398996 | 18.33° C | 44% | 1022.1 hPa | 0 mm | - | - | - |
| 1777398396 | 18.33° C | 45% | 1022.1 hPa | 0 mm | - | - | - |
| 1777397797 | 18.89° C | 44% | 1022.1 hPa | 0 mm | - | - | - |
| 1777397196 | 18.89° C | 45% | 1022.1 hPa | 0 mm | - | - | - |
| 1777396595 | 19.44° C | 45% | 1022.2 hPa | 0 mm | - | - | - |
| 1777395998 | 21.11° C | 41% | 1022.1 hPa | 0 mm | - | - | - |
| 1777395395 | 23.33° C | 38% | 1022.2 hPa | 0 mm | - | - | - |
| 1777394796 | 22.22° C | 41% | 1022.2 hPa | 0 mm | - | - | - |
| 1777394196 | 20.56° C | 43% | 1022 hPa | 0 mm | - | - | - |
* Rain latest hour (hover to see other rain measurements)
** Current wind speed in m/s (hover to see current wind gust speed)